Pagrindinis puslapis
METAR-TAF:

METAR-TAF

Oro uostai :

Ndžamena, Čadas

platuma: 12-08N, ilguma: 015-02E, Aukštis: 295 m

Dabartinis oras

Ataskaita buvo paskelbta 58 minutes, ne 10:00 UTC
Vėjas 6 kt iš Pietryčių, svyruoja nuo Pietryčių ir Vakarų
Temperatūra 39°C
Drėgmė 30%
Slėgis 1010 hPa
Matomumas 10 km arba daugiau
nėra debesų žemiau 1500 m ir nėra kamuolinių lietaus debesų

METAR: FTTJ 311000Z 14006KT 140V260 CAVOK 39/18 Q1010 NOSIG

Laikas: 11:58 (10:58 UTC)

Prognozė

Ataskaita buvo paskelbta 5 valandos ir 58 minutes, ne 05:00 UTC
Prognozė galioja nuo 31 metu 06 UTC su 01 metu 12 UTC
Vėjas 6 kt iš Pietų
Matomumas: 7000 m
Tikimybė 30% :
Laikinai
nuo 31 metu 14 UTC su 31 metu 18 UTC
perkūnija

TAF: FTTJ 310500Z 3106/0112 18006KT 7000 NSC PROB30 TEMPO 3114/3118 TS

Orai ataskaitas ir orų prognozės (METAR, TAF).

turimą stotys yra geltonos ir raudonos taškus žemėlapyje.

Perkelti pele per norėdami pamatyti stoties vardą.

Tada spustelėkite, norėdami matyti oro stebėjimo ir prognozės.

Norėdami pakeisti žemėlapį: spustelėkite ant žalios mygtukų su juodo kryžiaus žemyn,; žalią mygtuką su brūkšneliu, jei norite nutolinti; arba žalių rodyklių gretimoms žemėlapius.


METAR-TAF: